sensor_id;sensor_type;location;lat;lon;timestamp;temperature;humidity
54461;DHT22;40371;49.414;11.010;2022-10-16T00:02:05;15.90;99.90
54461;DHT22;40371;49.414;11.010;2022-10-16T00:04:31;15.90;99.90
54461;DHT22;40371;49.414;11.010;2022-10-16T00:06:56;15.90;99.90
54461;DHT22;40371;49.414;11.010;2022-10-16T00:09:22;15.90;99.90
54461;DHT22;40371;49.414;11.010;2022-10-16T00:11:48;15.90;99.90
54461;DHT22;40371;49.414;11.010;2022-10-16T00:14:15;15.80;99.90
54461;DHT22;40371;49.414;11.010;2022-10-16T00:16:41;15.80;99.90
54461;DHT22;40371;49.414;11.010;2022-10-16T00:19:06;15.80;99.90
54461;DHT22;40371;49.414;11.010;2022-10-16T00:21:33;15.80;99.90
54461;DHT22;40371;49.414;11.010;2022-10-16T00:24:03;15.90;99.90
54461;DHT22;40371;49.414;11.010;2022-10-16T00:26:31;15.80;99.90
54461;DHT22;40371;49.414;11.010;2022-10-16T00:28:57;15.70;99.90
54461;DHT22;40371;49.414;11.010;2022-10-16T00:31:24;15.70;99.90
54461;DHT22;40371;49.414;11.010;2022-10-16T00:33:50;15.80;99.90
54461;DHT22;40371;49.414;11.010;2022-10-16T00:36:19;15.90;99.90
54461;DHT22;40371;49.414;11.010;2022-10-16T00:38:46;15.90;99.90
54461;DHT22;40371;49.414;11.010;2022-10-16T00:41:15;15.90;99.90
54461;DHT22;40371;49.414;11.010;2022-10-16T00:43:51;15.90;99.90
54461;DHT22;40371;49.414;11.010;2022-10-16T00:46:37;15.90;99.90
54461;DHT22;40371;49.414;11.010;2022-10-16T00:49:17;15.90;99.90
54461;DHT22;40371;49.414;11.010;2022-10-16T00:51:47;15.90;99.90
54461;DHT22;40371;49.414;11.010;2022-10-16T00:54:21;15.90;99.90
54461;DHT22;40371;49.414;11.010;2022-10-16T00:56:47;15.80;99.90
54461;DHT22;40371;49.414;11.010;2022-10-16T00:59:19;15.90;99.90
54461;DHT22;40371;49.414;11.010;2022-10-16T01:01:45;15.90;99.90
54461;DHT22;40371;49.414;11.010;2022-10-16T01:04:11;15.90;99.90
54461;DHT22;40371;49.414;11.010;2022-10-16T01:06:46;15.80;99.90
54461;DHT22;40371;49.414;11.010;2022-10-16T01:09:34;15.80;99.90
54461;DHT22;40371;49.414;11.010;2022-10-16T01:14:54;15.80;99.90
54461;DHT22;40371;49.414;11.010;2022-10-16T01:20:16;15.80;99.90
54461;DHT22;40371;49.414;11.010;2022-10-16T01:31:35;15.70;99.90
54461;DHT22;40371;49.414;11.010;2022-10-16T01:34:09;15.70;99.90
54461;DHT22;40371;49.414;11.010;2022-10-16T01:36:41;15.80;99.90
54461;DHT22;40371;49.414;11.010;2022-10-16T01:39:09;15.70;99.90
54461;DHT22;40371;49.414;11.010;2022-10-16T01:41:43;15.70;99.90
54461;DHT22;40371;49.414;11.010;2022-10-16T01:44:22;15.70;99.90
54461;DHT22;40371;49.414;11.010;2022-10-16T01:46:52;15.70;99.90
54461;DHT22;40371;49.414;11.010;2022-10-16T01:49:19;15.70;99.90
54461;DHT22;40371;49.414;11.010;2022-10-16T01:51:49;15.80;99.90
54461;DHT22;40371;49.414;11.010;2022-10-16T01:54:17;15.80;99.90
54461;DHT22;40371;49.414;11.010;2022-10-16T01:56:44;15.80;99.90
54461;DHT22;40371;49.414;11.010;2022-10-16T01:59:13;15.80;99.90
54461;DHT22;40371;49.414;11.010;2022-10-16T02:01:44;15.80;99.90
54461;DHT22;40371;49.414;11.010;2022-10-16T02:04:29;15.80;99.90
54461;DHT22;40371;49.414;11.010;2022-10-16T02:06:57;15.80;99.90
54461;DHT22;40371;49.414;11.010;2022-10-16T02:09:23;15.80;99.90
54461;DHT22;40371;49.414;11.010;2022-10-16T02:11:50;15.80;99.90
54461;DHT22;40371;49.414;11.010;2022-10-16T02:14:19;15.80;99.90
54461;DHT22;40371;49.414;11.010;2022-10-16T02:16:46;15.80;99.90
54461;DHT22;40371;49.414;11.010;2022-10-16T02:19:17;15.70;99.90
54461;DHT22;40371;49.414;11.010;2022-10-16T02:21:54;15.70;99.90
54461;DHT22;40371;49.414;11.010;2022-10-16T02:24:27;15.70;99.90
54461;DHT22;40371;49.414;11.010;2022-10-16T02:27:06;15.70;99.90
54461;DHT22;40371;49.414;11.010;2022-10-16T02:29:38;15.70;99.90
54461;DHT22;40371;49.414;11.010;2022-10-16T02:32:07;15.80;99.90
54461;DHT22;40371;49.414;11.010;2022-10-16T02:34:36;15.70;99.90
54461;DHT22;40371;49.414;11.010;2022-10-16T02:37:03;15.60;99.90
54461;DHT22;40371;49.414;11.010;2022-10-16T02:39:29;15.70;99.90
54461;DHT22;40371;49.414;11.010;2022-10-16T02:41:55;15.70;99.90
54461;DHT22;40371;49.414;11.010;2022-10-16T02:44:21;15.80;99.90
54461;DHT22;40371;49.414;11.010;2022-10-16T02:46:47;15.70;99.90
54461;DHT22;40371;49.414;11.010;2022-10-16T02:49:12;15.70;99.90
54461;DHT22;40371;49.414;11.010;2022-10-16T02:51:38;15.70;99.90
54461;DHT22;40371;49.414;11.010;2022-10-16T02:54:03;15.80;99.90
54461;DHT22;40371;49.414;11.010;2022-10-16T02:56:29;15.70;99.90
54461;DHT22;40371;49.414;11.010;2022-10-16T02:58:56;15.70;99.90
54461;DHT22;40371;49.414;11.010;2022-10-16T03:01:22;15.70;99.90
54461;DHT22;40371;49.414;11.010;2022-10-16T03:03:48;15.70;99.90
54461;DHT22;40371;49.414;11.010;2022-10-16T03:06:13;15.70;99.90
54461;DHT22;40371;49.414;11.010;2022-10-16T03:08:39;15.70;99.90
54461;DHT22;40371;49.414;11.010;2022-10-16T03:11:04;15.70;99.90
54461;DHT22;40371;49.414;11.010;2022-10-16T03:13:30;15.70;99.90
54461;DHT22;40371;49.414;11.010;2022-10-16T03:15:56;15.60;99.90
54461;DHT22;40371;49.414;11.010;2022-10-16T03:18:21;15.60;99.90
54461;DHT22;40371;49.414;11.010;2022-10-16T03:20:47;15.60;99.90
54461;DHT22;40371;49.414;11.010;2022-10-16T03:23:12;15.60;99.90
54461;DHT22;40371;49.414;11.010;2022-10-16T03:25:38;15.60;99.90
54461;DHT22;40371;49.414;11.010;2022-10-16T03:28:04;15.60;99.90
54461;DHT22;40371;49.414;11.010;2022-10-16T03:30:30;15.50;99.90
54461;DHT22;40371;49.414;11.010;2022-10-16T03:32:55;15.50;99.90
54461;DHT22;40371;49.414;11.010;2022-10-16T03:35:22;15.60;99.90
54461;DHT22;40371;49.414;11.010;2022-10-16T03:37:47;15.50;99.90
54461;DHT22;40371;49.414;11.010;2022-10-16T03:40:13;15.60;99.90
54461;DHT22;40371;49.414;11.010;2022-10-16T03:42:39;15.60;99.90
54461;DHT22;40371;49.414;11.010;2022-10-16T03:45:05;15.50;99.90
54461;DHT22;40371;49.414;11.010;2022-10-16T03:47:31;15.50;99.90
54461;DHT22;40371;49.414;11.010;2022-10-16T03:49:58;15.50;99.90
54461;DHT22;40371;49.414;11.010;2022-10-16T03:52:24;15.60;99.90
54461;DHT22;40371;49.414;11.010;2022-10-16T03:54:50;15.60;99.90
54461;DHT22;40371;49.414;11.010;2022-10-16T03:57:16;15.60;99.90
54461;DHT22;40371;49.414;11.010;2022-10-16T03:59:41;15.60;99.90
54461;DHT22;40371;49.414;11.010;2022-10-16T04:02:07;15.60;99.90
54461;DHT22;40371;49.414;11.010;2022-10-16T04:04:32;15.60;99.90
54461;DHT22;40371;49.414;11.010;2022-10-16T04:06:58;15.60;99.90
54461;DHT22;40371;49.414;11.010;2022-10-16T04:09:24;15.60;99.90
54461;DHT22;40371;49.414;11.010;2022-10-16T04:11:49;15.60;99.90
54461;DHT22;40371;49.414;11.010;2022-10-16T04:14:15;15.60;99.90
54461;DHT22;40371;49.414;11.010;2022-10-16T04:16:40;15.60;99.90
54461;DHT22;40371;49.414;11.010;2022-10-16T04:19:06;15.60;99.90
54461;DHT22;40371;49.414;11.010;2022-10-16T04:21:31;15.60;99.90
54461;DHT22;40371;49.414;11.010;2022-10-16T04:23:57;15.60;99.90
54461;DHT22;40371;49.414;11.010;2022-10-16T04:26:23;15.60;99.90
54461;DHT22;40371;49.414;11.010;2022-10-16T04:28:49;15.60;99.90
54461;DHT22;40371;49.414;11.010;2022-10-16T04:31:14;15.50;99.90
54461;DHT22;40371;49.414;11.010;2022-10-16T04:33:42;15.50;99.90
54461;DHT22;40371;49.414;11.010;2022-10-16T04:36:08;15.60;99.90
54461;DHT22;40371;49.414;11.010;2022-10-16T04:38:34;15.60;99.90
54461;DHT22;40371;49.414;11.010;2022-10-16T04:40:59;15.60;99.90
54461;DHT22;40371;49.414;11.010;2022-10-16T04:43:25;15.60;99.90
54461;DHT22;40371;49.414;11.010;2022-10-16T04:45:51;15.60;99.90
54461;DHT22;40371;49.414;11.010;2022-10-16T04:48:17;15.60;99.90
54461;DHT22;40371;49.414;11.010;2022-10-16T04:50:43;15.50;99.90
54461;DHT22;40371;49.414;11.010;2022-10-16T04:53:09;15.50;99.90
54461;DHT22;40371;49.414;11.010;2022-10-16T04:55:35;15.50;99.90
54461;DHT22;40371;49.414;11.010;2022-10-16T04:58:00;15.50;99.90
54461;DHT22;40371;49.414;11.010;2022-10-16T05:00:26;15.60;99.90
54461;DHT22;40371;49.414;11.010;2022-10-16T05:02:52;15.50;99.90
54461;DHT22;40371;49.414;11.010;2022-10-16T05:05:18;15.50;99.90
54461;DHT22;40371;49.414;11.010;2022-10-16T05:07:47;15.50;99.90
54461;DHT22;40371;49.414;11.010;2022-10-16T05:10:13;15.40;99.90
54461;DHT22;40371;49.414;11.010;2022-10-16T05:12:38;15.40;99.90
54461;DHT22;40371;49.414;11.010;2022-10-16T05:15:04;15.40;99.90
54461;DHT22;40371;49.414;11.010;2022-10-16T05:17:30;15.40;99.90
54461;DHT22;40371;49.414;11.010;2022-10-16T05:19:56;15.40;99.90
54461;DHT22;40371;49.414;11.010;2022-10-16T05:22:22;15.40;99.90
54461;DHT22;40371;49.414;11.010;2022-10-16T05:24:47;15.40;99.90
54461;DHT22;40371;49.414;11.010;2022-10-16T05:27:13;15.30;99.90
54461;DHT22;40371;49.414;11.010;2022-10-16T05:29:48;15.30;99.90
54461;DHT22;40371;49.414;11.010;2022-10-16T05:32:17;15.30;99.90
54461;DHT22;40371;49.414;11.010;2022-10-16T05:34:44;15.30;99.90
54461;DHT22;40371;49.414;11.010;2022-10-16T05:37:10;15.30;99.90
54461;DHT22;40371;49.414;11.010;2022-10-16T05:39:37;15.30;99.90
54461;DHT22;40371;49.414;11.010;2022-10-16T05:42:03;15.30;99.90
54461;DHT22;40371;49.414;11.010;2022-10-16T05:44:29;15.30;99.90
54461;DHT22;40371;49.414;11.010;2022-10-16T05:46:55;15.30;99.90
54461;DHT22;40371;49.414;11.010;2022-10-16T05:49:20;15.40;99.90
54461;DHT22;40371;49.414;11.010;2022-10-16T05:51:46;15.40;99.90
54461;DHT22;40371;49.414;11.010;2022-10-16T05:54:11;15.50;99.90
54461;DHT22;40371;49.414;11.010;2022-10-16T05:56:37;15.40;99.90
54461;DHT22;40371;49.414;11.010;2022-10-16T05:59:03;15.50;99.90
54461;DHT22;40371;49.414;11.010;2022-10-16T06:01:29;15.50;99.90
54461;DHT22;40371;49.414;11.010;2022-10-16T06:03:57;15.50;99.90
54461;DHT22;40371;49.414;11.010;2022-10-16T06:06:24;15.50;99.90
54461;DHT22;40371;49.414;11.010;2022-10-16T06:08:52;15.50;99.90
54461;DHT22;40371;49.414;11.010;2022-10-16T06:11:21;15.50;99.90
54461;DHT22;40371;49.414;11.010;2022-10-16T06:13:51;15.60;99.90
54461;DHT22;40371;49.414;11.010;2022-10-16T06:16:17;15.60;99.90
54461;DHT22;40371;49.414;11.010;2022-10-16T06:18:42;15.60;99.90
54461;DHT22;40371;49.414;11.010;2022-10-16T06:21:19;15.60;99.90
54461;DHT22;40371;49.414;11.010;2022-10-16T06:23:45;15.60;99.90
54461;DHT22;40371;49.414;11.010;2022-10-16T06:26:15;15.70;99.90
54461;DHT22;40371;49.414;11.010;2022-10-16T06:28:41;15.70;99.90
54461;DHT22;40371;49.414;11.010;2022-10-16T06:31:09;15.80;99.90
54461;DHT22;40371;49.414;11.010;2022-10-16T06:33:36;15.90;99.90
54461;DHT22;40371;49.414;11.010;2022-10-16T06:38:31;16.00;99.90
54461;DHT22;40371;49.414;11.010;2022-10-16T06:40:57;16.00;99.90
54461;DHT22;40371;49.414;11.010;2022-10-16T06:43:22;16.00;99.90
54461;DHT22;40371;49.414;11.010;2022-10-16T06:45:55;16.00;99.90
54461;DHT22;40371;49.414;11.010;2022-10-16T06:48:22;16.00;99.90
54461;DHT22;40371;49.414;11.010;2022-10-16T06:51:05;16.10;99.90
54461;DHT22;40371;49.414;11.010;2022-10-16T06:53:33;16.20;99.90
54461;DHT22;40371;49.414;11.010;2022-10-16T06:56:14;16.20;99.90
54461;DHT22;40371;49.414;11.010;2022-10-16T06:58:41;16.20;99.90
54461;DHT22;40371;49.414;11.010;2022-10-16T07:01:07;16.20;99.90
54461;DHT22;40371;49.414;11.010;2022-10-16T07:03:35;16.20;99.90
54461;DHT22;40371;49.414;11.010;2022-10-16T07:06:03;16.20;99.90
54461;DHT22;40371;49.414;11.010;2022-10-16T07:08:35;16.20;99.90
54461;DHT22;40371;49.414;11.010;2022-10-16T07:11:07;16.20;99.90
54461;DHT22;40371;49.414;11.010;2022-10-16T07:13:37;16.00;99.90
54461;DHT22;40371;49.414;11.010;2022-10-16T07:16:14;16.00;99.90
54461;DHT22;40371;49.414;11.010;2022-10-16T07:18:40;16.00;99.90
54461;DHT22;40371;49.414;11.010;2022-10-16T07:21:10;16.10;99.90
54461;DHT22;40371;49.414;11.010;2022-10-16T07:23:36;16.20;99.90
54461;DHT22;40371;49.414;11.010;2022-10-16T07:26:02;16.30;99.90
54461;DHT22;40371;49.414;11.010;2022-10-16T07:28:28;16.30;99.90
54461;DHT22;40371;49.414;11.010;2022-10-16T07:30:54;16.30;99.90
54461;DHT22;40371;49.414;11.010;2022-10-16T07:33:20;16.30;99.90
54461;DHT22;40371;49.414;11.010;2022-10-16T07:35:53;16.20;99.90
54461;DHT22;40371;49.414;11.010;2022-10-16T07:38:20;16.30;99.90
54461;DHT22;40371;49.414;11.010;2022-10-16T07:40:46;16.30;99.90
54461;DHT22;40371;49.414;11.010;2022-10-16T07:43:12;16.30;99.90
54461;DHT22;40371;49.414;11.010;2022-10-16T07:45:49;16.30;99.90
54461;DHT22;40371;49.414;11.010;2022-10-16T07:48:16;16.30;99.90
54461;DHT22;40371;49.414;11.010;2022-10-16T07:50:42;16.30;99.90
54461;DHT22;40371;49.414;11.010;2022-10-16T07:53:08;16.40;99.90
54461;DHT22;40371;49.414;11.010;2022-10-16T07:55:34;16.40;99.90
54461;DHT22;40371;49.414;11.010;2022-10-16T07:57:59;16.40;99.90
54461;DHT22;40371;49.414;11.010;2022-10-16T08:00:25;16.40;99.90
54461;DHT22;40371;49.414;11.010;2022-10-16T08:02:50;16.50;99.90
54461;DHT22;40371;49.414;11.010;2022-10-16T08:05:16;16.60;99.90
54461;DHT22;40371;49.414;11.010;2022-10-16T08:07:42;16.60;99.90
54461;DHT22;40371;49.414;11.010;2022-10-16T08:10:18;16.70;99.90
54461;DHT22;40371;49.414;11.010;2022-10-16T08:12:44;16.70;99.90
54461;DHT22;40371;49.414;11.010;2022-10-16T08:15:10;16.70;99.90
54461;DHT22;40371;49.414;11.010;2022-10-16T08:17:36;16.80;99.90
54461;DHT22;40371;49.414;11.010;2022-10-16T08:20:02;16.80;99.90
54461;DHT22;40371;49.414;11.010;2022-10-16T08:22:28;16.80;99.90
54461;DHT22;40371;49.414;11.010;2022-10-16T08:24:53;16.80;99.90
54461;DHT22;40371;49.414;11.010;2022-10-16T08:27:19;17.00;99.90
54461;DHT22;40371;49.414;11.010;2022-10-16T08:29:44;17.10;99.90
54461;DHT22;40371;49.414;11.010;2022-10-16T08:32:10;17.10;99.90
54461;DHT22;40371;49.414;11.010;2022-10-16T08:34:36;17.20;99.90
54461;DHT22;40371;49.414;11.010;2022-10-16T08:37:01;17.30;99.90
54461;DHT22;40371;49.414;11.010;2022-10-16T08:39:27;17.60;99.90
54461;DHT22;40371;49.414;11.010;2022-10-16T08:42:00;17.70;99.90
54461;DHT22;40371;49.414;11.010;2022-10-16T08:50:11;18.00;99.90
54461;DHT22;40371;49.414;11.010;2022-10-16T08:52:40;18.10;99.90
54461;DHT22;40371;49.414;11.010;2022-10-16T08:55:20;17.90;99.90
54461;DHT22;40371;49.414;11.010;2022-10-16T08:57:49;18.10;99.90
54461;DHT22;40371;49.414;11.010;2022-10-16T09:00:15;18.30;99.90
54461;DHT22;40371;49.414;11.010;2022-10-16T09:02:55;18.40;99.90
54461;DHT22;40371;49.414;11.010;2022-10-16T09:08:42;18.50;99.90
54461;DHT22;40371;49.414;11.010;2022-10-16T09:16:48;18.90;99.90
54461;DHT22;40371;49.414;11.010;2022-10-16T09:19:27;19.00;99.90
54461;DHT22;40371;49.414;11.010;2022-10-16T09:21:56;19.10;99.90
54461;DHT22;40371;49.414;11.010;2022-10-16T09:24:24;18.90;99.90
54461;DHT22;40371;49.414;11.010;2022-10-16T09:26:50;18.90;99.90
54461;DHT22;40371;49.414;11.010;2022-10-16T09:29:18;18.90;99.90
54461;DHT22;40371;49.414;11.010;2022-10-16T09:31:48;18.90;99.90
54461;DHT22;40371;49.414;11.010;2022-10-16T09:34:34;18.70;99.90
54461;DHT22;40371;49.414;11.010;2022-10-16T09:37:04;18.50;99.90
54461;DHT22;40371;49.414;11.010;2022-10-16T09:39:30;18.40;99.90
54461;DHT22;40371;49.414;11.010;2022-10-16T09:42:11;18.30;99.90
54461;DHT22;40371;49.414;11.010;2022-10-16T09:44:39;18.20;99.90
54461;DHT22;40371;49.414;11.010;2022-10-16T09:47:20;18.20;99.90
54461;DHT22;40371;49.414;11.010;2022-10-16T09:49:59;18.20;99.90
54461;DHT22;40371;49.414;11.010;2022-10-16T09:52:31;18.20;99.90
54461;DHT22;40371;49.414;11.010;2022-10-16T09:54:59;18.20;99.90
54461;DHT22;40371;49.414;11.010;2022-10-16T09:57:25;18.20;99.90
54461;DHT22;40371;49.414;11.010;2022-10-16T09:59:53;18.30;99.90
54461;DHT22;40371;49.414;11.010;2022-10-16T10:02:33;18.40;99.90
54461;DHT22;40371;49.414;11.010;2022-10-16T10:05:00;18.50;99.90
54461;DHT22;40371;49.414;11.010;2022-10-16T10:07:28;18.70;99.90
54461;DHT22;40371;49.414;11.010;2022-10-16T10:09:57;18.70;99.90
54461;DHT22;40371;49.414;11.010;2022-10-16T10:12:28;18.90;99.90
54461;DHT22;40371;49.414;11.010;2022-10-16T10:15:02;19.10;99.90
54461;DHT22;40371;49.414;11.010;2022-10-16T10:17:29;19.30;99.90
54461;DHT22;40371;49.414;11.010;2022-10-16T10:19:58;19.60;99.90
54461;DHT22;40371;49.414;11.010;2022-10-16T10:36:40;19.90;99.90
54461;DHT22;40371;49.414;11.010;2022-10-16T10:39:20;20.00;99.90
54461;DHT22;40371;49.414;11.010;2022-10-16T10:42:13;20.10;99.90
54461;DHT22;40371;49.414;11.010;2022-10-16T10:50:43;20.90;99.90
54461;DHT22;40371;49.414;11.010;2022-10-16T11:01:56;21.00;99.90
54461;DHT22;40371;49.414;11.010;2022-10-16T11:07:25;20.50;99.90
54461;DHT22;40371;49.414;11.010;2022-10-16T11:09:57;20.40;99.90
54461;DHT22;40371;49.414;11.010;2022-10-16T11:12:33;20.50;99.90
54461;DHT22;40371;49.414;11.010;2022-10-16T11:15:18;20.60;99.90
54461;DHT22;40371;49.414;11.010;2022-10-16T11:17:52;20.60;99.90
54461;DHT22;40371;49.414;11.010;2022-10-16T11:22:51;20.60;99.90
54461;DHT22;40371;49.414;11.010;2022-10-16T11:25:27;20.70;99.90
54461;DHT22;40371;49.414;11.010;2022-10-16T11:28:11;20.70;99.90
54461;DHT22;40371;49.414;11.010;2022-10-16T11:33:32;20.90;99.90
54461;DHT22;40371;49.414;11.010;2022-10-16T11:36:18;21.00;99.90
54461;DHT22;40371;49.414;11.010;2022-10-16T11:41:39;21.20;99.90
54461;DHT22;40371;49.414;11.010;2022-10-16T11:44:41;21.30;99.90
54461;DHT22;40371;49.414;11.010;2022-10-16T11:52:56;22.70;99.90
54461;DHT22;40371;49.414;11.010;2022-10-16T11:55:27;23.00;99.90
54461;DHT22;40371;49.414;11.010;2022-10-16T12:08:51;23.80;99.90
54461;DHT22;40371;49.414;11.010;2022-10-16T12:16:30;23.60;99.90
54461;DHT22;40371;49.414;11.010;2022-10-16T12:19:16;24.00;99.90
54461;DHT22;40371;49.414;11.010;2022-10-16T12:21:43;23.90;99.90
54461;DHT22;40371;49.414;11.010;2022-10-16T12:24:33;23.90;99.90
54461;DHT22;40371;49.414;11.010;2022-10-16T12:27:00;24.20;99.90
54461;DHT22;40371;49.414;11.010;2022-10-16T12:29:41;24.20;99.90
54461;DHT22;40371;49.414;11.010;2022-10-16T12:32:31;24.40;99.90
54461;DHT22;40371;49.414;11.010;2022-10-16T12:34:58;24.30;99.90
54461;DHT22;40371;49.414;11.010;2022-10-16T12:37:28;23.90;99.90
54461;DHT22;40371;49.414;11.010;2022-10-16T12:39:56;23.70;99.90
54461;DHT22;40371;49.414;11.010;2022-10-16T12:44:55;23.10;99.90
54461;DHT22;40371;49.414;11.010;2022-10-16T12:47:22;23.10;99.90
54461;DHT22;40371;49.414;11.010;2022-10-16T12:49:53;23.40;99.90
54461;DHT22;40371;49.414;11.010;2022-10-16T12:52:35;23.50;99.90
54461;DHT22;40371;49.414;11.010;2022-10-16T12:55:01;23.50;99.90
54461;DHT22;40371;49.414;11.010;2022-10-16T13:00:32;23.50;99.90
54461;DHT22;40371;49.414;11.010;2022-10-16T13:09:13;23.50;99.90
54461;DHT22;40371;49.414;11.010;2022-10-16T13:12:01;23.30;99.90
54461;DHT22;40371;49.414;11.010;2022-10-16T13:15:11;23.20;99.90
54461;DHT22;40371;49.414;11.010;2022-10-16T13:20:31;23.20;99.90
54461;DHT22;40371;49.414;11.010;2022-10-16T13:23:15;23.10;99.90
54461;DHT22;40371;49.414;11.010;2022-10-16T13:28:14;23.00;99.90
54461;DHT22;40371;49.414;11.010;2022-10-16T13:30:43;22.90;99.90
54461;DHT22;40371;49.414;11.010;2022-10-16T13:33:21;22.80;99.90
54461;DHT22;40371;49.414;11.010;2022-10-16T13:35:54;22.90;99.90
54461;DHT22;40371;49.414;11.010;2022-10-16T13:38:22;22.90;99.90
54461;DHT22;40371;49.414;11.010;2022-10-16T13:43:41;22.90;99.90
54461;DHT22;40371;49.414;11.010;2022-10-16T13:46:21;23.00;99.90
54461;DHT22;40371;49.414;11.010;2022-10-16T13:51:22;23.10;99.90
54461;DHT22;40371;49.414;11.010;2022-10-16T13:53:48;23.00;99.90
54461;DHT22;40371;49.414;11.010;2022-10-16T13:56:17;22.90;99.90
54461;DHT22;40371;49.414;11.010;2022-10-16T13:58:43;22.80;99.90
54461;DHT22;40371;49.414;11.010;2022-10-16T14:01:20;22.70;99.90
54461;DHT22;40371;49.414;11.010;2022-10-16T14:03:49;22.70;99.90
54461;DHT22;40371;49.414;11.010;2022-10-16T14:06:17;22.80;99.90
54461;DHT22;40371;49.414;11.010;2022-10-16T14:08:46;22.70;99.90
54461;DHT22;40371;49.414;11.010;2022-10-16T14:11:21;22.60;99.90
54461;DHT22;40371;49.414;11.010;2022-10-16T14:13:49;22.60;99.90
54461;DHT22;40371;49.414;11.010;2022-10-16T14:16:18;22.70;99.90
54461;DHT22;40371;49.414;11.010;2022-10-16T14:18:58;22.60;99.90
54461;DHT22;40371;49.414;11.010;2022-10-16T14:21:25;22.60;99.90
54461;DHT22;40371;49.414;11.010;2022-10-16T14:23:52;22.60;99.90
54461;DHT22;40371;49.414;11.010;2022-10-16T14:26:20;22.60;99.90
54461;DHT22;40371;49.414;11.010;2022-10-16T14:28:48;22.50;99.90
54461;DHT22;40371;49.414;11.010;2022-10-16T14:33:45;22.50;99.90
54461;DHT22;40371;49.414;11.010;2022-10-16T14:36:13;22.40;99.90
54461;DHT22;40371;49.414;11.010;2022-10-16T14:38:48;22.30;99.90
54461;DHT22;40371;49.414;11.010;2022-10-16T14:41:15;22.20;99.90
54461;DHT22;40371;49.414;11.010;2022-10-16T14:43:42;22.10;99.90
54461;DHT22;40371;49.414;11.010;2022-10-16T14:46:20;22.00;99.90
54461;DHT22;40371;49.414;11.010;2022-10-16T14:48:48;22.00;99.90
54461;DHT22;40371;49.414;11.010;2022-10-16T14:51:16;22.00;99.90
54461;DHT22;40371;49.414;11.010;2022-10-16T14:53:42;22.00;99.90
54461;DHT22;40371;49.414;11.010;2022-10-16T14:56:29;22.10;99.90
54461;DHT22;40371;49.414;11.010;2022-10-16T14:58:55;22.20;99.90
54461;DHT22;40371;49.414;11.010;2022-10-16T15:01:21;22.20;99.90
54461;DHT22;40371;49.414;11.010;2022-10-16T15:03:46;22.20;99.90
54461;DHT22;40371;49.414;11.010;2022-10-16T15:06:14;22.20;99.90
54461;DHT22;40371;49.414;11.010;2022-10-16T15:08:40;22.10;99.90
54461;DHT22;40371;49.414;11.010;2022-10-16T15:11:14;22.10;99.90
54461;DHT22;40371;49.414;11.010;2022-10-16T15:13:40;22.00;99.90
54461;DHT22;40371;49.414;11.010;2022-10-16T15:16:11;21.90;99.90
54461;DHT22;40371;49.414;11.010;2022-10-16T15:18:37;21.80;99.90
54461;DHT22;40371;49.414;11.010;2022-10-16T15:21:02;21.70;99.90
54461;DHT22;40371;49.414;11.010;2022-10-16T15:23:28;21.60;99.90
54461;DHT22;40371;49.414;11.010;2022-10-16T15:25:55;21.50;99.90
54461;DHT22;40371;49.414;11.010;2022-10-16T15:28:22;21.40;99.90
54461;DHT22;40371;49.414;11.010;2022-10-16T15:30:53;21.30;99.90
54461;DHT22;40371;49.414;11.010;2022-10-16T15:33:21;21.20;99.90
54461;DHT22;40371;49.414;11.010;2022-10-16T15:35:51;21.20;99.90
54461;DHT22;40371;49.414;11.010;2022-10-16T15:38:18;21.10;99.90
54461;DHT22;40371;49.414;11.010;2022-10-16T15:40:45;21.10;99.90
54461;DHT22;40371;49.414;11.010;2022-10-16T15:43:11;21.00;99.90
54461;DHT22;40371;49.414;11.010;2022-10-16T15:45:37;20.90;99.90
54461;DHT22;40371;49.414;11.010;2022-10-16T15:48:02;20.90;99.90
54461;DHT22;40371;49.414;11.010;2022-10-16T15:50:30;20.90;99.90
54461;DHT22;40371;49.414;11.010;2022-10-16T15:52:55;20.80;99.90
54461;DHT22;40371;49.414;11.010;2022-10-16T15:55:21;20.80;99.90
54461;DHT22;40371;49.414;11.010;2022-10-16T15:57:46;20.80;99.90
54461;DHT22;40371;49.414;11.010;2022-10-16T16:00:14;20.70;99.90
54461;DHT22;40371;49.414;11.010;2022-10-16T16:02:41;20.70;99.90
54461;DHT22;40371;49.414;11.010;2022-10-16T16:05:09;20.70;99.90
54461;DHT22;40371;49.414;11.010;2022-10-16T16:07:35;20.60;99.90
54461;DHT22;40371;49.414;11.010;2022-10-16T16:10:03;20.60;99.90
54461;DHT22;40371;49.414;11.010;2022-10-16T16:12:29;20.50;99.90
54461;DHT22;40371;49.414;11.010;2022-10-16T16:14:55;20.50;99.90
54461;DHT22;40371;49.414;11.010;2022-10-16T16:17:20;20.40;99.90
54461;DHT22;40371;49.414;11.010;2022-10-16T16:19:46;20.40;99.90
54461;DHT22;40371;49.414;11.010;2022-10-16T16:22:12;20.30;99.90
54461;DHT22;40371;49.414;11.010;2022-10-16T16:24:38;20.30;99.90
54461;DHT22;40371;49.414;11.010;2022-10-16T16:27:03;20.20;99.90
54461;DHT22;40371;49.414;11.010;2022-10-16T16:29:29;20.20;99.90
54461;DHT22;40371;49.414;11.010;2022-10-16T16:31:55;20.10;99.90
54461;DHT22;40371;49.414;11.010;2022-10-16T16:34:26;20.00;99.90
54461;DHT22;40371;49.414;11.010;2022-10-16T16:36:53;20.00;99.90
54461;DHT22;40371;49.414;11.010;2022-10-16T16:39:19;19.90;99.90
54461;DHT22;40371;49.414;11.010;2022-10-16T16:41:44;19.80;99.90
54461;DHT22;40371;49.414;11.010;2022-10-16T16:44:14;19.80;99.90
54461;DHT22;40371;49.414;11.010;2022-10-16T16:46:40;19.70;99.90
54461;DHT22;40371;49.414;11.010;2022-10-16T16:49:09;19.70;99.90
54461;DHT22;40371;49.414;11.010;2022-10-16T16:51:37;19.50;99.90
54461;DHT22;40371;49.414;11.010;2022-10-16T16:54:04;19.60;99.90
54461;DHT22;40371;49.414;11.010;2022-10-16T16:56:29;19.50;99.90
54461;DHT22;40371;49.414;11.010;2022-10-16T16:58:56;19.40;99.90
54461;DHT22;40371;49.414;11.010;2022-10-16T17:01:23;19.30;99.90
54461;DHT22;40371;49.414;11.010;2022-10-16T17:03:51;19.30;99.90
54461;DHT22;40371;49.414;11.010;2022-10-16T17:06:19;19.30;99.90
54461;DHT22;40371;49.414;11.010;2022-10-16T17:08:45;19.20;99.90
54461;DHT22;40371;49.414;11.010;2022-10-16T17:11:18;19.20;99.90
54461;DHT22;40371;49.414;11.010;2022-10-16T17:13:44;19.20;99.90
54461;DHT22;40371;49.414;11.010;2022-10-16T17:16:10;19.20;99.90
54461;DHT22;40371;49.414;11.010;2022-10-16T17:18:36;19.20;99.90
54461;DHT22;40371;49.414;11.010;2022-10-16T17:21:05;19.20;99.90
54461;DHT22;40371;49.414;11.010;2022-10-16T17:23:32;19.10;99.90
54461;DHT22;40371;49.414;11.010;2022-10-16T17:26:11;19.10;99.90